Portada
METAR-TAF:

METAR-TAF

Aeroports :

El-Tor, Egipte

latitud: 28-14N, longitud: 032-37E, altitud: 21 m

Observació

L'informe es va fer fa 40 minuts, a les 15:00 UTC
Vent 14 kt del Oest/Nord-Oest
Temperatura 21°C
Humitat 64%
Pressió 1015 hPa
Visibilitat 10 km o més
sense núvols per sota de 1500 mi sense presència de cumulonimbus.

METAR: HETR 251500Z 30014KT CAVOK 21/14 Q1015

Hora: 17:40 (15:40 UTC)

Pronòstic

L'informe es va fer fa 4 hores i 40 minuts, a les 11:00 UTC
Pronòstic vàlid del 25 a les 12 UTC al 26 a les 18 UTC
Vent 10 kt del Oest amb ràfegues de 24 kt
Visibilitat: 6000 m
Núvols disperses a una alçada de 2500 ft
Temporalment
l' 25 a les 12 UTC al 25 a les 15 UTC
Visibilitat: 4000 m
sorra,

TAF: HETR 251100Z 2512/2618 28010G24KT 6000 SCT025 TEMPO 2512/2515 4000 SA

Observacions i pronòstics meteorològics de més de 4000 aeroports (METAR i TAF).

Les estacions disponibles són els punts grocs i vermells al mapa.

Posi el ratolí al punt desitjat per veure el nom de l'estació.

Feu clic per veure les observacions i els pronòstics meteorològics.

Per canviar el mapa: feu clic els botons verds amb una creu de color negre per apropar; al botó verd amb un guió per allunyar la imatge; o en les fletxes verdes per a mapes adjacents.


METAR-TAF: